createdAt,value
2023-03-22T00:01:51.333Z,32.93
2023-03-22T00:04:26.925Z,32.79
2023-03-22T00:06:54.379Z,32.97
2023-03-22T00:09:28.068Z,33.19
2023-03-22T00:11:55.484Z,32.68
2023-03-22T00:14:28.613Z,33.16
2023-03-22T00:16:56.601Z,32.86
2023-03-22T00:19:26.346Z,32.86
2023-03-22T00:21:56.838Z,32.63
2023-03-22T00:24:29.860Z,33.12
2023-03-22T00:27:01.574Z,32.94
2023-03-22T00:29:34.818Z,32.76
2023-03-22T00:32:02.745Z,32.80
2023-03-22T00:34:38.114Z,33.00
2023-03-22T00:37:08.478Z,32.95
2023-03-22T00:39:38.758Z,32.66
2023-03-22T00:42:10.788Z,32.71
2023-03-22T00:44:44.609Z,33.03
2023-03-22T00:47:15.829Z,32.90
2023-03-22T00:49:45.314Z,32.52
2023-03-22T00:52:16.169Z,33.12
2023-03-22T00:54:46.636Z,32.79
2023-03-22T00:57:17.874Z,32.67
2023-03-22T00:59:48.931Z,32.88
2023-03-22T01:02:18.760Z,32.56
2023-03-22T01:04:49.899Z,32.79
2023-03-22T01:07:25.853Z,32.77
2023-03-22T01:09:58.561Z,32.64
2023-03-22T01:12:29.642Z,32.82
2023-03-22T01:14:57.033Z,32.68
2023-03-22T01:17:30.244Z,32.73
2023-03-22T01:20:07.268Z,32.97
2023-03-22T01:22:37.353Z,33.05
2023-03-22T01:25:12.382Z,32.90
2023-03-22T01:27:40.277Z,33.04
2023-03-22T01:30:16.917Z,32.58
2023-03-22T01:32:47.437Z,33.12
2023-03-22T01:35:16.131Z,33.02
2023-03-22T01:37:46.770Z,33.02
2023-03-22T01:40:18.682Z,32.85
2023-03-22T01:42:52.469Z,32.91
2023-03-22T01:45:30.440Z,32.80
2023-03-22T01:48:37.477Z,32.69
2023-03-22T01:51:25.279Z,32.83
2023-03-22T01:54:36.519Z,32.88
2023-03-22T01:57:18.512Z,32.64
2023-03-22T01:59:52.476Z,32.92
2023-03-22T02:02:42.952Z,32.72
2023-03-22T02:05:25.825Z,33.00
2023-03-22T02:07:59.756Z,32.80
2023-03-22T02:10:34.228Z,33.11
2023-03-22T02:13:22.740Z,32.93
2023-03-22T02:16:08.966Z,33.07
2023-03-22T02:19:10.542Z,32.79
2023-03-22T02:22:09.787Z,32.98
2023-03-22T02:25:12.769Z,32.86
2023-03-22T02:27:58.664Z,33.08
2023-03-22T02:30:54.229Z,33.02
2023-03-22T02:34:06.016Z,32.75
2023-03-22T02:36:42.651Z,32.96
2023-03-22T02:39:29.754Z,32.88
2023-03-22T02:42:20.170Z,32.84
2023-03-22T02:45:01.398Z,32.82
2023-03-22T02:47:41.429Z,32.98
2023-03-22T02:50:27.482Z,32.75
2023-03-22T02:53:14.250Z,32.83
2023-03-22T02:56:18.236Z,32.52
2023-03-22T02:58:57.565Z,32.86
2023-03-22T03:01:38.475Z,32.86
2023-03-22T03:04:10.880Z,32.82
2023-03-22T03:06:47.491Z,32.81
2023-03-22T03:09:22.453Z,32.92
2023-03-22T03:11:54.024Z,33.05
2023-03-22T03:14:25.998Z,33.13
2023-03-22T03:17:41.376Z,32.89
2023-03-22T03:20:11.651Z,33.11
2023-03-22T03:23:13.688Z,32.81
2023-03-22T03:26:10.542Z,32.97
2023-03-22T03:28:50.163Z,32.95
2023-03-22T03:31:46.958Z,32.84
2023-03-22T03:34:14.320Z,32.73
2023-03-22T03:36:53.499Z,33.02
2023-03-22T03:39:30.822Z,32.67
2023-03-22T03:42:01.931Z,32.72
2023-03-22T03:44:35.904Z,32.65
2023-03-22T03:47:08.860Z,32.65
2023-03-22T03:49:39.791Z,32.58
2023-03-22T03:52:07.725Z,32.87
2023-03-22T03:54:41.057Z,32.94
2023-03-22T03:57:12.446Z,32.79
2023-03-22T03:59:44.705Z,32.87
2023-03-22T04:02:30.564Z,32.84
2023-03-22T04:05:00.416Z,32.69
2023-03-22T04:07:31.052Z,32.90
2023-03-22T04:10:09.562Z,32.81
2023-03-22T04:12:42.679Z,32.97
2023-03-22T04:15:15.752Z,32.73
2023-03-22T04:17:48.871Z,32.60
2023-03-22T04:20:20.749Z,32.95
2023-03-22T04:22:49.974Z,33.00
2023-03-22T04:25:23.794Z,33.01
2023-03-22T04:28:04.289Z,32.67
2023-03-22T04:30:37.481Z,32.97
2023-03-22T04:33:32.653Z,32.95
2023-03-22T04:36:17.434Z,33.09
2023-03-22T04:39:00.882Z,32.87
2023-03-22T04:41:33.922Z,32.96
2023-03-22T04:44:03.466Z,32.80
2023-03-22T04:46:37.238Z,32.86
2023-03-22T04:49:11.254Z,32.98
2023-03-22T04:51:44.523Z,32.78
2023-03-22T04:54:46.451Z,32.92
2023-03-22T04:57:14.112Z,33.00
2023-03-22T04:59:49.942Z,33.00
2023-03-22T05:02:17.552Z,33.12
2023-03-22T05:04:46.974Z,32.99
2023-03-22T05:07:32.433Z,33.23
2023-03-22T05:10:05.651Z,33.15
2023-03-22T05:12:36.347Z,32.96
2023-03-22T05:15:26.871Z,33.22
2023-03-22T05:17:59.655Z,33.40
2023-03-22T05:20:30.516Z,33.00
2023-03-22T05:23:10.168Z,32.96
2023-03-22T05:25:45.230Z,33.14
2023-03-22T05:28:22.525Z,33.27
2023-03-22T05:31:00.981Z,33.34
2023-03-22T05:33:55.091Z,33.17
2023-03-22T05:36:25.645Z,33.29
2023-03-22T05:39:15.929Z,32.93
2023-03-22T05:41:52.866Z,33.14
2023-03-22T05:44:26.172Z,32.97
2023-03-22T05:47:10.013Z,33.02
2023-03-22T05:49:53.969Z,32.87
2023-03-22T05:52:27.012Z,32.70
2023-03-22T05:55:20.009Z,32.97
2023-03-22T05:57:57.354Z,32.69
2023-03-22T06:00:32.136Z,32.93
2023-03-22T06:03:28.456Z,32.99
2023-03-22T06:06:01.120Z,32.74
2023-03-22T06:08:47.081Z,32.59
2023-03-22T06:11:19.301Z,32.81
2023-03-22T06:13:55.143Z,32.83
2023-03-22T06:16:32.499Z,32.85
2023-03-22T06:19:02.798Z,32.79
2023-03-22T06:21:34.064Z,33.15
2023-03-22T06:24:02.191Z,32.99
2023-03-22T06:26:31.055Z,33.08
2023-03-22T06:29:00.363Z,32.98
2023-03-22T06:31:34.050Z,33.30
2023-03-22T06:34:07.824Z,33.27
2023-03-22T06:36:42.461Z,33.25
2023-03-22T06:39:17.367Z,32.82
2023-03-22T06:41:46.455Z,32.90
2023-03-22T06:44:17.147Z,33.20
2023-03-22T06:46:55.906Z,33.14
2023-03-22T06:49:40.616Z,33.15
2023-03-22T06:52:09.190Z,33.26
2023-03-22T06:54:37.015Z,33.23
2023-03-22T06:57:07.512Z,32.78
2023-03-22T06:59:37.647Z,32.77
2023-03-22T07:02:10.457Z,32.99
2023-03-22T07:04:40.887Z,32.73
2023-03-22T07:07:18.237Z,32.62
2023-03-22T07:09:46.209Z,32.73
2023-03-22T07:12:16.945Z,32.64
2023-03-22T07:14:50.358Z,32.89
2023-03-22T07:17:41.643Z,32.57
2023-03-22T07:20:09.523Z,32.83
2023-03-22T07:22:45.266Z,33.15
2023-03-22T07:25:13.239Z,32.67
2023-03-22T07:27:40.637Z,32.90
2023-03-22T07:30:09.871Z,32.79
2023-03-22T07:32:48.145Z,32.51
2023-03-22T07:35:21.228Z,32.75
2023-03-22T07:37:55.595Z,32.79
2023-03-22T07:40:31.546Z,32.69
2023-03-22T07:43:02.371Z,32.75
2023-03-22T07:45:44.777Z,32.48
2023-03-22T07:48:34.521Z,32.55
2023-03-22T07:51:42.728Z,32.72
2023-03-22T07:54:14.035Z,32.95
2023-03-22T07:56:48.518Z,32.82
2023-03-22T07:59:19.518Z,32.77
2023-03-22T08:01:52.702Z,32.93
2023-03-22T08:04:34.302Z,32.71
2023-03-22T08:07:13.913Z,33.02
2023-03-22T08:09:43.360Z,32.50
2023-03-22T08:12:14.604Z,32.80
2023-03-22T08:14:48.217Z,32.19
2023-03-22T08:17:26.302Z,32.45
2023-03-22T08:19:59.332Z,32.35
2023-03-22T08:22:45.058Z,32.31
2023-03-22T08:25:25.528Z,32.38
2023-03-22T08:27:55.698Z,32.61
2023-03-22T08:30:33.215Z,32.65
2023-03-22T08:33:01.295Z,32.54
2023-03-22T08:35:33.673Z,32.67
2023-03-22T08:38:04.343Z,32.65
2023-03-22T08:40:46.401Z,32.13
2023-03-22T08:43:14.409Z,32.21
2023-03-22T08:45:45.142Z,32.19
2023-03-22T08:48:19.931Z,32.70
2023-03-22T08:51:12.140Z,32.73
2023-03-22T08:54:05.412Z,32.38
2023-03-22T08:57:09.450Z,32.46
2023-03-22T09:00:04.857Z,32.42
2023-03-22T09:02:53.003Z,32.00
2023-03-22T09:05:23.360Z,32.01
2023-03-22T09:08:02.572Z,32.10
2023-03-22T09:10:40.452Z,32.22
2023-03-22T09:13:13.523Z,32.26
2023-03-22T09:15:48.257Z,31.85
2023-03-22T09:18:32.268Z,32.29
2023-03-22T09:21:10.217Z,32.17
2023-03-22T09:23:54.538Z,32.25
2023-03-22T09:26:27.907Z,31.96
2023-03-22T09:29:00.915Z,31.84
2023-03-22T09:31:37.134Z,31.88
2023-03-22T09:34:24.083Z,31.67
2023-03-22T09:36:56.192Z,32.10
2023-03-22T09:39:32.356Z,31.70
2023-03-22T09:42:21.874Z,31.88
2023-03-22T09:44:55.523Z,31.81
2023-03-22T09:47:46.790Z,31.74
2023-03-22T09:50:26.204Z,31.78
2023-03-22T09:53:00.504Z,31.66
2023-03-22T09:55:42.258Z,31.79
2023-03-22T09:58:49.945Z,31.09
2023-03-22T10:02:08.786Z,31.47
2023-03-22T10:04:59.202Z,31.24
2023-03-22T10:07:58.472Z,31.85
2023-03-22T10:10:27.227Z,31.36
2023-03-22T10:13:14.868Z,31.32
2023-03-22T10:15:52.286Z,31.75
2023-03-22T10:18:37.308Z,30.85
2023-03-22T10:21:11.754Z,30.70
2023-03-22T10:23:47.868Z,30.60
2023-03-22T10:26:21.701Z,30.93
2023-03-22T10:29:37.717Z,30.81
2023-03-22T10:32:20.214Z,31.09
2023-03-22T10:34:52.660Z,31.30
2023-03-22T10:37:32.280Z,30.46
2023-03-22T10:40:07.203Z,30.90
2023-03-22T10:42:39.654Z,30.10
2023-03-22T10:45:16.177Z,30.54
2023-03-22T10:48:00.232Z,31.04
2023-03-22T10:50:38.350Z,30.97
2023-03-22T10:53:15.022Z,30.67
2023-03-22T10:55:46.374Z,30.61
2023-03-22T10:58:19.713Z,30.61
2023-03-22T11:00:57.202Z,30.45
2023-03-22T11:03:34.712Z,30.42
2023-03-22T11:06:12.684Z,30.12
2023-03-22T11:08:54.853Z,30.45
2023-03-22T11:11:33.424Z,30.26
2023-03-22T11:14:19.449Z,30.09
2023-03-22T11:16:58.823Z,30.02
2023-03-22T11:19:35.707Z,29.98
2023-03-22T11:22:25.606Z,30.47
2023-03-22T11:24:59.212Z,30.40
2023-03-22T11:27:37.800Z,30.70
2023-03-22T11:30:28.959Z,30.46
2023-03-22T11:33:09.213Z,29.87
2023-03-22T11:35:38.891Z,30.10
2023-03-22T11:38:07.870Z,29.80
2023-03-22T11:40:37.121Z,29.11
2023-03-22T11:43:10.504Z,30.02
2023-03-22T11:45:45.752Z,29.90
2023-03-22T11:48:22.055Z,28.90
2023-03-22T11:50:56.287Z,28.59
2023-03-22T11:53:28.875Z,28.36
2023-03-22T11:56:00.738Z,28.41
2023-03-22T11:58:45.079Z,28.82
2023-03-22T12:01:22.618Z,28.84
2023-03-22T12:03:56.370Z,29.60
2023-03-22T12:06:33.680Z,29.23
2023-03-22T12:09:13.785Z,29.60
2023-03-22T12:11:46.870Z,29.76
2023-03-22T12:14:27.254Z,29.73
2023-03-22T12:17:16.967Z,29.99
2023-03-22T12:20:06.979Z,29.88
2023-03-22T12:22:43.417Z,29.89
2023-03-22T12:25:24.935Z,29.76
2023-03-22T12:27:59.707Z,29.72
2023-03-22T12:30:31.787Z,29.67
2023-03-22T12:33:35.663Z,29.91
2023-03-22T12:36:07.029Z,29.92
2023-03-22T12:38:46.317Z,30.12
2023-03-22T12:44:43.286Z,29.71
2023-03-22T12:47:25.206Z,29.86
2023-03-22T12:49:59.008Z,29.38
2023-03-22T12:52:46.194Z,29.46
2023-03-22T12:55:23.739Z,29.97
2023-03-22T12:57:57.313Z,29.58
2023-03-22T13:00:33.367Z,28.77
2023-03-22T13:03:20.085Z,29.12
2023-03-22T13:05:50.325Z,29.21
2023-03-22T13:08:22.523Z,29.46
2023-03-22T13:11:05.263Z,29.06
2023-03-22T13:13:42.191Z,29.13
2023-03-22T13:16:11.342Z,29.01
2023-03-22T13:18:45.316Z,29.26
2023-03-22T13:21:24.047Z,29.42
2023-03-22T13:24:15.872Z,29.52
2023-03-22T13:26:52.979Z,29.53
2023-03-22T13:29:39.881Z,29.07
2023-03-22T13:32:38.579Z,28.19
2023-03-22T13:35:28.190Z,29.33
2023-03-22T13:38:26.782Z,29.03
2023-03-22T13:41:01.061Z,28.71
2023-03-22T13:43:50.349Z,28.78
2023-03-22T13:46:23.774Z,28.90
2023-03-22T13:49:00.400Z,28.39
2023-03-22T13:51:33.321Z,28.27
2023-03-22T13:54:16.634Z,28.51
2023-03-22T13:56:52.569Z,28.47
2023-03-22T13:59:27.658Z,28.53
2023-03-22T14:02:02.585Z,27.90
2023-03-22T14:04:43.283Z,28.09
2023-03-22T14:07:38.717Z,28.64
2023-03-22T14:10:43.380Z,28.86
2023-03-22T14:13:42.773Z,28.74
2023-03-22T14:16:20.038Z,28.66
2023-03-22T14:18:51.609Z,28.96
2023-03-22T14:21:39.896Z,28.68
